sensor_id;sensor_type;location;lat;lon;timestamp;temperature;humidity
26655;DHT22;14278;50.784;4.630;2024-01-11T00:02:09;-1.50;99.90
26655;DHT22;14278;50.784;4.630;2024-01-11T00:04:35;-1.40;99.90
26655;DHT22;14278;50.784;4.630;2024-01-11T00:07:00;-1.50;99.90
26655;DHT22;14278;50.784;4.630;2024-01-11T00:09:26;-1.80;99.90
26655;DHT22;14278;50.784;4.630;2024-01-11T00:11:52;-1.90;99.90
26655;DHT22;14278;50.784;4.630;2024-01-11T00:14:17;-1.60;99.90
26655;DHT22;14278;50.784;4.630;2024-01-11T00:16:43;-1.50;99.90
26655;DHT22;14278;50.784;4.630;2024-01-11T00:19:08;-1.40;99.90
26655;DHT22;14278;50.784;4.630;2024-01-11T00:21:34;-1.40;99.90
26655;DHT22;14278;50.784;4.630;2024-01-11T00:24:00;-1.30;99.90
26655;DHT22;14278;50.784;4.630;2024-01-11T00:26:26;-1.50;99.90
26655;DHT22;14278;50.784;4.630;2024-01-11T00:28:51;-1.60;99.90
26655;DHT22;14278;50.784;4.630;2024-01-11T00:31:17;-1.90;99.90
26655;DHT22;14278;50.784;4.630;2024-01-11T00:33:42;-1.80;99.90
26655;DHT22;14278;50.784;4.630;2024-01-11T00:36:08;-1.40;99.90
26655;DHT22;14278;50.784;4.630;2024-01-11T00:38:34;-1.70;99.90
26655;DHT22;14278;50.784;4.630;2024-01-11T00:40:59;-1.90;99.90
26655;DHT22;14278;50.784;4.630;2024-01-11T00:43:25;-1.60;99.90
26655;DHT22;14278;50.784;4.630;2024-01-11T00:45:51;-1.60;99.90
26655;DHT22;14278;50.784;4.630;2024-01-11T00:48:16;-1.20;99.90
26655;DHT22;14278;50.784;4.630;2024-01-11T00:50:42;-1.30;99.90
26655;DHT22;14278;50.784;4.630;2024-01-11T00:53:07;-1.70;99.90
26655;DHT22;14278;50.784;4.630;2024-01-11T00:55:37;-1.80;99.90
26655;DHT22;14278;50.784;4.630;2024-01-11T00:58:03;-1.40;99.90
26655;DHT22;14278;50.784;4.630;2024-01-11T01:00:29;-1.70;99.90
26655;DHT22;14278;50.784;4.630;2024-01-11T01:02:55;-1.90;99.90
26655;DHT22;14278;50.784;4.630;2024-01-11T01:05:20;-2.10;99.90
26655;DHT22;14278;50.784;4.630;2024-01-11T01:07:46;-1.90;99.90
26655;DHT22;14278;50.784;4.630;2024-01-11T01:10:12;-1.80;99.90
26655;DHT22;14278;50.784;4.630;2024-01-11T01:12:37;-2.00;99.90
26655;DHT22;14278;50.784;4.630;2024-01-11T01:15:03;-2.10;99.90
26655;DHT22;14278;50.784;4.630;2024-01-11T01:17:29;-2.50;99.90
26655;DHT22;14278;50.784;4.630;2024-01-11T01:19:54;-2.20;99.90
26655;DHT22;14278;50.784;4.630;2024-01-11T01:22:20;-2.00;99.90
26655;DHT22;14278;50.784;4.630;2024-01-11T01:24:46;-2.00;99.90
26655;DHT22;14278;50.784;4.630;2024-01-11T01:27:11;-2.20;99.90
26655;DHT22;14278;50.784;4.630;2024-01-11T01:29:38;-2.30;99.90
26655;DHT22;14278;50.784;4.630;2024-01-11T01:32:04;-2.10;99.90
26655;DHT22;14278;50.784;4.630;2024-01-11T01:34:30;-2.00;99.90
26655;DHT22;14278;50.784;4.630;2024-01-11T01:36:55;-1.80;99.90
26655;DHT22;14278;50.784;4.630;2024-01-11T01:39:21;-1.60;99.90
26655;DHT22;14278;50.784;4.630;2024-01-11T01:41:47;-1.50;99.90
26655;DHT22;14278;50.784;4.630;2024-01-11T01:44:12;-1.90;99.90
26655;DHT22;14278;50.784;4.630;2024-01-11T01:46:38;-2.10;99.90
26655;DHT22;14278;50.784;4.630;2024-01-11T01:49:04;-2.20;99.90
26655;DHT22;14278;50.784;4.630;2024-01-11T01:51:31;-2.00;99.90
26655;DHT22;14278;50.784;4.630;2024-01-11T01:53:57;-2.10;99.90
26655;DHT22;14278;50.784;4.630;2024-01-11T01:56:24;-2.10;99.90
26655;DHT22;14278;50.784;4.630;2024-01-11T01:58:51;-2.20;99.90
26655;DHT22;14278;50.784;4.630;2024-01-11T02:01:18;-1.70;99.90
26655;DHT22;14278;50.784;4.630;2024-01-11T02:03:46;-1.40;99.90
26655;DHT22;14278;50.784;4.630;2024-01-11T02:06:13;-1.60;99.90
26655;DHT22;14278;50.784;4.630;2024-01-11T02:08:42;-1.70;99.90
26655;DHT22;14278;50.784;4.630;2024-01-11T02:11:10;-1.60;99.90
26655;DHT22;14278;50.784;4.630;2024-01-11T02:13:36;-1.70;99.90
26655;DHT22;14278;50.784;4.630;2024-01-11T02:16:02;-1.80;99.90
26655;DHT22;14278;50.784;4.630;2024-01-11T02:18:28;-1.80;99.90
26655;DHT22;14278;50.784;4.630;2024-01-11T02:20:54;-2.00;99.90
26655;DHT22;14278;50.784;4.630;2024-01-11T02:23:21;-2.00;99.90
26655;DHT22;14278;50.784;4.630;2024-01-11T02:25:49;-1.80;99.90
26655;DHT22;14278;50.784;4.630;2024-01-11T02:28:15;-1.70;99.90
26655;DHT22;14278;50.784;4.630;2024-01-11T02:30:41;-1.80;99.90
26655;DHT22;14278;50.784;4.630;2024-01-11T02:33:08;-1.90;99.90
26655;DHT22;14278;50.784;4.630;2024-01-11T02:35:34;-2.00;99.90
26655;DHT22;14278;50.784;4.630;2024-01-11T02:38:03;-2.10;99.90
26655;DHT22;14278;50.784;4.630;2024-01-11T02:40:29;-1.90;99.90
26655;DHT22;14278;50.784;4.630;2024-01-11T02:42:55;-2.10;99.90
26655;DHT22;14278;50.784;4.630;2024-01-11T02:45:21;-2.00;99.90
26655;DHT22;14278;50.784;4.630;2024-01-11T02:47:46;-1.80;99.90
26655;DHT22;14278;50.784;4.630;2024-01-11T02:50:12;-2.00;99.90
26655;DHT22;14278;50.784;4.630;2024-01-11T02:52:38;-2.30;99.90
26655;DHT22;14278;50.784;4.630;2024-01-11T02:55:04;-2.20;99.90
26655;DHT22;14278;50.784;4.630;2024-01-11T02:57:29;-2.00;99.90
26655;DHT22;14278;50.784;4.630;2024-01-11T02:59:55;-1.90;99.90
26655;DHT22;14278;50.784;4.630;2024-01-11T03:02:21;-1.80;99.90
26655;DHT22;14278;50.784;4.630;2024-01-11T03:04:47;-1.50;99.90
26655;DHT22;14278;50.784;4.630;2024-01-11T03:07:12;-1.50;99.90
26655;DHT22;14278;50.784;4.630;2024-01-11T03:09:38;-1.70;99.90
26655;DHT22;14278;50.784;4.630;2024-01-11T03:12:07;-1.80;99.90
26655;DHT22;14278;50.784;4.630;2024-01-11T03:14:33;-2.00;99.90
26655;DHT22;14278;50.784;4.630;2024-01-11T03:16:58;-2.00;99.90
26655;DHT22;14278;50.784;4.630;2024-01-11T03:19:27;-2.10;99.90
26655;DHT22;14278;50.784;4.630;2024-01-11T03:21:53;-1.90;99.90
26655;DHT22;14278;50.784;4.630;2024-01-11T03:24:18;-2.00;99.90
26655;DHT22;14278;50.784;4.630;2024-01-11T03:26:44;-1.80;99.90
26655;DHT22;14278;50.784;4.630;2024-01-11T03:29:09;-1.90;99.90
26655;DHT22;14278;50.784;4.630;2024-01-11T03:31:35;-2.00;99.90
26655;DHT22;14278;50.784;4.630;2024-01-11T03:34:01;-2.00;99.90
26655;DHT22;14278;50.784;4.630;2024-01-11T03:36:27;-2.10;99.90
26655;DHT22;14278;50.784;4.630;2024-01-11T03:38:53;-2.20;99.90
26655;DHT22;14278;50.784;4.630;2024-01-11T03:41:18;-2.10;99.90
26655;DHT22;14278;50.784;4.630;2024-01-11T03:43:47;-2.10;99.90
26655;DHT22;14278;50.784;4.630;2024-01-11T03:46:13;-2.20;99.90
26655;DHT22;14278;50.784;4.630;2024-01-11T03:48:39;-2.10;99.90
26655;DHT22;14278;50.784;4.630;2024-01-11T03:51:04;-2.00;99.90
26655;DHT22;14278;50.784;4.630;2024-01-11T03:53:30;-2.20;99.90
26655;DHT22;14278;50.784;4.630;2024-01-11T03:56:00;-2.20;99.90
26655;DHT22;14278;50.784;4.630;2024-01-11T03:58:25;-2.10;99.90
26655;DHT22;14278;50.784;4.630;2024-01-11T04:00:52;-1.80;99.90
26655;DHT22;14278;50.784;4.630;2024-01-11T04:03:17;-1.80;99.90
26655;DHT22;14278;50.784;4.630;2024-01-11T04:05:43;-2.10;99.90
26655;DHT22;14278;50.784;4.630;2024-01-11T04:08:08;-2.10;99.90
26655;DHT22;14278;50.784;4.630;2024-01-11T04:10:37;-2.20;99.90
26655;DHT22;14278;50.784;4.630;2024-01-11T04:13:03;-2.40;99.90
26655;DHT22;14278;50.784;4.630;2024-01-11T04:15:28;-2.00;99.90
26655;DHT22;14278;50.784;4.630;2024-01-11T04:17:54;-2.10;99.90
26655;DHT22;14278;50.784;4.630;2024-01-11T04:20:20;-2.10;99.90
26655;DHT22;14278;50.784;4.630;2024-01-11T04:22:45;-2.50;99.90
26655;DHT22;14278;50.784;4.630;2024-01-11T04:25:11;-2.40;99.90
26655;DHT22;14278;50.784;4.630;2024-01-11T04:27:37;-2.40;99.90
26655;DHT22;14278;50.784;4.630;2024-01-11T04:30:03;-2.50;99.90
26655;DHT22;14278;50.784;4.630;2024-01-11T04:32:29;-2.50;99.90
26655;DHT22;14278;50.784;4.630;2024-01-11T04:34:55;-2.50;99.90
26655;DHT22;14278;50.784;4.630;2024-01-11T04:37:20;-2.20;99.90
26655;DHT22;14278;50.784;4.630;2024-01-11T04:39:46;-2.40;99.90
26655;DHT22;14278;50.784;4.630;2024-01-11T04:42:12;-2.20;99.90
26655;DHT22;14278;50.784;4.630;2024-01-11T04:44:37;-2.40;99.90
26655;DHT22;14278;50.784;4.630;2024-01-11T04:47:03;-2.20;99.90
26655;DHT22;14278;50.784;4.630;2024-01-11T04:49:29;-1.90;99.90
26655;DHT22;14278;50.784;4.630;2024-01-11T04:51:54;-1.90;99.90
26655;DHT22;14278;50.784;4.630;2024-01-11T04:54:20;-2.30;99.90
26655;DHT22;14278;50.784;4.630;2024-01-11T04:56:45;-2.70;99.90
26655;DHT22;14278;50.784;4.630;2024-01-11T04:59:11;-2.80;99.90
26655;DHT22;14278;50.784;4.630;2024-01-11T05:01:37;-2.60;99.90
26655;DHT22;14278;50.784;4.630;2024-01-11T05:04:02;-2.40;99.90
26655;DHT22;14278;50.784;4.630;2024-01-11T05:06:28;-2.50;99.90
26655;DHT22;14278;50.784;4.630;2024-01-11T05:08:54;-2.50;99.90
26655;DHT22;14278;50.784;4.630;2024-01-11T05:11:22;-2.20;99.90
26655;DHT22;14278;50.784;4.630;2024-01-11T05:13:50;-2.10;99.90
26655;DHT22;14278;50.784;4.630;2024-01-11T05:16:26;-2.10;99.90
26655;DHT22;14278;50.784;4.630;2024-01-11T05:18:53;-2.00;99.90
26655;DHT22;14278;50.784;4.630;2024-01-11T05:21:19;-2.00;99.90
26655;DHT22;14278;50.784;4.630;2024-01-11T05:23:45;-2.00;99.90
26655;DHT22;14278;50.784;4.630;2024-01-11T05:26:13;-1.80;99.90
26655;DHT22;14278;50.784;4.630;2024-01-11T05:28:38;-1.60;99.90
26655;DHT22;14278;50.784;4.630;2024-01-11T05:31:07;-1.60;99.90
26655;DHT22;14278;50.784;4.630;2024-01-11T05:33:33;-2.10;99.90
26655;DHT22;14278;50.784;4.630;2024-01-11T05:35:59;-2.40;99.90
26655;DHT22;14278;50.784;4.630;2024-01-11T05:38:25;-2.60;99.90
26655;DHT22;14278;50.784;4.630;2024-01-11T05:40:50;-2.50;99.90
26655;DHT22;14278;50.784;4.630;2024-01-11T05:43:16;-2.60;99.90
26655;DHT22;14278;50.784;4.630;2024-01-11T05:45:41;-2.30;99.90
26655;DHT22;14278;50.784;4.630;2024-01-11T05:48:07;-2.40;99.90
26655;DHT22;14278;50.784;4.630;2024-01-11T05:50:33;-2.30;99.90
26655;DHT22;14278;50.784;4.630;2024-01-11T05:52:58;-2.30;99.90
26655;DHT22;14278;50.784;4.630;2024-01-11T05:55:24;-2.50;99.90
26655;DHT22;14278;50.784;4.630;2024-01-11T05:57:50;-2.50;99.90
26655;DHT22;14278;50.784;4.630;2024-01-11T06:00:16;-2.40;99.90
26655;DHT22;14278;50.784;4.630;2024-01-11T06:02:41;-2.20;99.90
26655;DHT22;14278;50.784;4.630;2024-01-11T06:05:10;-2.00;99.90
26655;DHT22;14278;50.784;4.630;2024-01-11T06:07:37;-2.20;99.90
26655;DHT22;14278;50.784;4.630;2024-01-11T06:10:04;-2.40;99.90
26655;DHT22;14278;50.784;4.630;2024-01-11T06:12:32;-2.60;99.90
26655;DHT22;14278;50.784;4.630;2024-01-11T06:14:58;-2.70;99.90
26655;DHT22;14278;50.784;4.630;2024-01-11T06:17:24;-2.60;99.90
26655;DHT22;14278;50.784;4.630;2024-01-11T06:19:49;-2.40;99.90
26655;DHT22;14278;50.784;4.630;2024-01-11T06:22:15;-2.10;99.90
26655;DHT22;14278;50.784;4.630;2024-01-11T06:24:41;-2.00;99.90
26655;DHT22;14278;50.784;4.630;2024-01-11T06:27:07;-2.10;99.90
26655;DHT22;14278;50.784;4.630;2024-01-11T06:29:33;-2.20;99.90
26655;DHT22;14278;50.784;4.630;2024-01-11T06:31:58;-2.20;99.90
26655;DHT22;14278;50.784;4.630;2024-01-11T06:34:24;-2.70;99.90
26655;DHT22;14278;50.784;4.630;2024-01-11T06:36:50;-2.50;99.90
26655;DHT22;14278;50.784;4.630;2024-01-11T06:39:15;-2.50;99.90
26655;DHT22;14278;50.784;4.630;2024-01-11T06:41:41;-2.50;99.90
26655;DHT22;14278;50.784;4.630;2024-01-11T06:44:07;-2.40;99.90
26655;DHT22;14278;50.784;4.630;2024-01-11T06:46:32;-2.10;99.90
26655;DHT22;14278;50.784;4.630;2024-01-11T06:48:58;-1.90;99.90
26655;DHT22;14278;50.784;4.630;2024-01-11T06:51:24;-2.10;99.90
26655;DHT22;14278;50.784;4.630;2024-01-11T06:53:49;-1.90;99.90
26655;DHT22;14278;50.784;4.630;2024-01-11T06:56:16;-2.00;99.90
26655;DHT22;14278;50.784;4.630;2024-01-11T06:58:43;-2.60;99.90
26655;DHT22;14278;50.784;4.630;2024-01-11T07:01:09;-2.80;99.90
26655;DHT22;14278;50.784;4.630;2024-01-11T07:03:35;-2.70;99.90
26655;DHT22;14278;50.784;4.630;2024-01-11T07:06:01;-2.50;99.90
26655;DHT22;14278;50.784;4.630;2024-01-11T07:08:27;-2.50;99.90
26655;DHT22;14278;50.784;4.630;2024-01-11T07:10:52;-2.50;99.90
26655;DHT22;14278;50.784;4.630;2024-01-11T07:13:18;-2.20;99.90
26655;DHT22;14278;50.784;4.630;2024-01-11T07:15:44;-2.30;99.90
26655;DHT22;14278;50.784;4.630;2024-01-11T07:18:09;-2.60;99.90
26655;DHT22;14278;50.784;4.630;2024-01-11T07:20:35;-2.80;99.90
26655;DHT22;14278;50.784;4.630;2024-01-11T07:23:01;-2.70;99.90
26655;DHT22;14278;50.784;4.630;2024-01-11T07:25:26;-2.70;99.90
26655;DHT22;14278;50.784;4.630;2024-01-11T07:27:52;-2.60;99.90
26655;DHT22;14278;50.784;4.630;2024-01-11T07:30:18;-2.50;99.90
26655;DHT22;14278;50.784;4.630;2024-01-11T07:32:44;-2.50;99.90
26655;DHT22;14278;50.784;4.630;2024-01-11T07:35:10;-2.40;99.90
26655;DHT22;14278;50.784;4.630;2024-01-11T07:37:39;-2.40;99.90
26655;DHT22;14278;50.784;4.630;2024-01-11T07:40:06;-2.30;99.90
26655;DHT22;14278;50.784;4.630;2024-01-11T07:42:37;-2.20;99.90
26655;DHT22;14278;50.784;4.630;2024-01-11T07:45:04;-2.10;99.90
26655;DHT22;14278;50.784;4.630;2024-01-11T07:47:31;-2.40;99.90
26655;DHT22;14278;50.784;4.630;2024-01-11T07:49:57;-2.30;99.90
26655;DHT22;14278;50.784;4.630;2024-01-11T07:52:22;-2.60;99.90
26655;DHT22;14278;50.784;4.630;2024-01-11T07:54:48;-2.50;99.90
26655;DHT22;14278;50.784;4.630;2024-01-11T07:57:14;-2.30;99.90
26655;DHT22;14278;50.784;4.630;2024-01-11T07:59:39;-2.10;99.90
26655;DHT22;14278;50.784;4.630;2024-01-11T08:02:06;-2.10;99.90
26655;DHT22;14278;50.784;4.630;2024-01-11T08:04:32;-1.90;99.90
26655;DHT22;14278;50.784;4.630;2024-01-11T08:06:57;-2.60;99.90
26655;DHT22;14278;50.784;4.630;2024-01-11T08:09:27;-2.90;99.90
26655;DHT22;14278;50.784;4.630;2024-01-11T08:11:53;-3.10;99.90
26655;DHT22;14278;50.784;4.630;2024-01-11T08:14:20;-3.10;99.90
26655;DHT22;14278;50.784;4.630;2024-01-11T08:16:46;-2.80;99.90
26655;DHT22;14278;50.784;4.630;2024-01-11T08:19:12;-2.10;99.90
26655;DHT22;14278;50.784;4.630;2024-01-11T08:21:40;-1.90;99.90
26655;DHT22;14278;50.784;4.630;2024-01-11T08:24:07;-1.90;99.90
26655;DHT22;14278;50.784;4.630;2024-01-11T08:26:33;-1.60;99.90
26655;DHT22;14278;50.784;4.630;2024-01-11T08:28:59;-0.70;99.90
26655;DHT22;14278;50.784;4.630;2024-01-11T08:31:27;-0.60;99.90
26655;DHT22;14278;50.784;4.630;2024-01-11T08:33:53;-0.20;99.90
26655;DHT22;14278;50.784;4.630;2024-01-11T08:36:19;0.30;99.90
26655;DHT22;14278;50.784;4.630;2024-01-11T08:38:45;0.50;99.90
26655;DHT22;14278;50.784;4.630;2024-01-11T08:41:14;1.20;99.90
26655;DHT22;14278;50.784;4.630;2024-01-11T08:43:39;1.40;99.90
26655;DHT22;14278;50.784;4.630;2024-01-11T08:46:05;1.90;99.90
26655;DHT22;14278;50.784;4.630;2024-01-11T08:48:31;2.30;99.90
26655;DHT22;14278;50.784;4.630;2024-01-11T08:50:56;3.10;99.90
26655;DHT22;14278;50.784;4.630;2024-01-11T08:53:22;3.90;99.90
26655;DHT22;14278;50.784;4.630;2024-01-11T08:55:47;4.90;99.90
26655;DHT22;14278;50.784;4.630;2024-01-11T08:58:13;5.70;99.90
26655;DHT22;14278;50.784;4.630;2024-01-11T09:00:39;6.40;99.90
26655;DHT22;14278;50.784;4.630;2024-01-11T09:03:08;6.90;99.90
26655;DHT22;14278;50.784;4.630;2024-01-11T09:05:34;7.30;99.90
26655;DHT22;14278;50.784;4.630;2024-01-11T09:07:59;5.20;99.90
26655;DHT22;14278;50.784;4.630;2024-01-11T09:10:25;5.40;99.90
26655;DHT22;14278;50.784;4.630;2024-01-11T09:12:52;5.80;99.90
26655;DHT22;14278;50.784;4.630;2024-01-11T09:15:19;6.20;99.90
26655;DHT22;14278;50.784;4.630;2024-01-11T09:17:45;6.30;99.90
26655;DHT22;14278;50.784;4.630;2024-01-11T09:20:10;5.20;99.90
26655;DHT22;14278;50.784;4.630;2024-01-11T09:22:39;5.40;99.90
26655;DHT22;14278;50.784;4.630;2024-01-11T09:27:30;5.20;99.90
26655;DHT22;14278;50.784;4.630;2024-01-11T09:29:56;5.40;99.90
26655;DHT22;14278;50.784;4.630;2024-01-11T09:32:22;4.90;99.90
26655;DHT22;14278;50.784;4.630;2024-01-11T09:34:47;4.60;99.90
26655;DHT22;14278;50.784;4.630;2024-01-11T09:37:13;4.50;99.90
26655;DHT22;14278;50.784;4.630;2024-01-11T09:39:39;4.80;99.90
26655;DHT22;14278;50.784;4.630;2024-01-11T09:42:08;4.20;99.90
26655;DHT22;14278;50.784;4.630;2024-01-11T09:44:37;4.40;99.90
26655;DHT22;14278;50.784;4.630;2024-01-11T09:47:10;4.60;99.90
26655;DHT22;14278;50.784;4.630;2024-01-11T09:49:38;4.50;99.90
26655;DHT22;14278;50.784;4.630;2024-01-11T09:52:05;4.50;99.90
26655;DHT22;14278;50.784;4.630;2024-01-11T09:54:31;5.00;99.90
26655;DHT22;14278;50.784;4.630;2024-01-11T09:56:58;4.80;99.90
26655;DHT22;14278;50.784;4.630;2024-01-11T09:59:25;4.50;99.90
26655;DHT22;14278;50.784;4.630;2024-01-11T10:01:51;4.80;99.90
26655;DHT22;14278;50.784;4.630;2024-01-11T10:04:18;4.30;99.90
26655;DHT22;14278;50.784;4.630;2024-01-11T10:06:44;4.90;99.90
26655;DHT22;14278;50.784;4.630;2024-01-11T10:09:10;4.20;99.90
26655;DHT22;14278;50.784;4.630;2024-01-11T10:11:37;2.90;99.90
26655;DHT22;14278;50.784;4.630;2024-01-11T10:14:03;3.00;99.90
26655;DHT22;14278;50.784;4.630;2024-01-11T10:16:31;2.80;99.90
26655;DHT22;14278;50.784;4.630;2024-01-11T10:18:57;3.30;99.90
26655;DHT22;14278;50.784;4.630;2024-01-11T10:21:23;3.50;99.90
26655;DHT22;14278;50.784;4.630;2024-01-11T10:23:50;3.10;99.90
26655;DHT22;14278;50.784;4.630;2024-01-11T10:26:17;3.40;99.90
26655;DHT22;14278;50.784;4.630;2024-01-11T10:28:45;3.80;99.90
26655;DHT22;14278;50.784;4.630;2024-01-11T10:31:11;3.50;99.90
26655;DHT22;14278;50.784;4.630;2024-01-11T10:33:36;3.90;99.90
26655;DHT22;14278;50.784;4.630;2024-01-11T10:36:03;4.30;99.90
26655;DHT22;14278;50.784;4.630;2024-01-11T10:38:30;4.80;99.90
26655;DHT22;14278;50.784;4.630;2024-01-11T10:41:00;5.30;99.90
26655;DHT22;14278;50.784;4.630;2024-01-11T10:43:26;5.00;99.90
26655;DHT22;14278;50.784;4.630;2024-01-11T10:45:56;4.80;99.90
26655;DHT22;14278;50.784;4.630;2024-01-11T10:48:25;4.50;99.90
26655;DHT22;14278;50.784;4.630;2024-01-11T10:51:01;4.30;99.90
26655;DHT22;14278;50.784;4.630;2024-01-11T10:53:46;4.60;99.90
26655;DHT22;14278;50.784;4.630;2024-01-11T10:56:14;4.80;99.90
26655;DHT22;14278;50.784;4.630;2024-01-11T10:58:42;4.00;99.90
26655;DHT22;14278;50.784;4.630;2024-01-11T11:01:11;4.70;99.90
26655;DHT22;14278;50.784;4.630;2024-01-11T11:03:38;4.90;99.90
26655;DHT22;14278;50.784;4.630;2024-01-11T11:06:05;5.60;99.90
26655;DHT22;14278;50.784;4.630;2024-01-11T11:08:33;6.20;99.90
26655;DHT22;14278;50.784;4.630;2024-01-11T11:11:02;5.40;99.90
26655;DHT22;14278;50.784;4.630;2024-01-11T11:13:30;4.60;99.90
26655;DHT22;14278;50.784;4.630;2024-01-11T11:15:56;5.50;99.90
26655;DHT22;14278;50.784;4.630;2024-01-11T11:18:25;6.70;99.90
26655;DHT22;14278;50.784;4.630;2024-01-11T11:20:51;7.20;99.90
26655;DHT22;14278;50.784;4.630;2024-01-11T11:23:18;6.80;99.90
26655;DHT22;14278;50.784;4.630;2024-01-11T11:25:48;6.50;99.90
26655;DHT22;14278;50.784;4.630;2024-01-11T11:28:16;7.30;99.90
26655;DHT22;14278;50.784;4.630;2024-01-11T11:30:44;7.50;99.90
26655;DHT22;14278;50.784;4.630;2024-01-11T11:33:25;7.80;99.90
26655;DHT22;14278;50.784;4.630;2024-01-11T11:35:56;6.50;99.90
26655;DHT22;14278;50.784;4.630;2024-01-11T11:38:27;7.00;99.90
26655;DHT22;14278;50.784;4.630;2024-01-11T11:40:57;7.50;99.90
26655;DHT22;14278;50.784;4.630;2024-01-11T11:43:25;6.80;99.90
26655;DHT22;14278;50.784;4.630;2024-01-11T11:45:52;6.70;99.90
26655;DHT22;14278;50.784;4.630;2024-01-11T11:51:15;8.10;99.90
26655;DHT22;14278;50.784;4.630;2024-01-11T11:53:41;7.20;99.90
26655;DHT22;14278;50.784;4.630;2024-01-11T11:56:08;7.10;99.90
26655;DHT22;14278;50.784;4.630;2024-01-11T11:58:38;6.80;99.90
26655;DHT22;14278;50.784;4.630;2024-01-11T12:01:08;7.20;99.90
26655;DHT22;14278;50.784;4.630;2024-01-11T12:03:36;6.20;99.90
26655;DHT22;14278;50.784;4.630;2024-01-11T12:06:03;6.20;99.90
26655;DHT22;14278;50.784;4.630;2024-01-11T12:08:30;6.30;99.90
26655;DHT22;14278;50.784;4.630;2024-01-11T12:10:56;7.00;99.90
26655;DHT22;14278;50.784;4.630;2024-01-11T12:13:23;7.00;99.90
26655;DHT22;14278;50.784;4.630;2024-01-11T12:15:49;7.20;99.90
26655;DHT22;14278;50.784;4.630;2024-01-11T12:18:15;6.90;99.90
26655;DHT22;14278;50.784;4.630;2024-01-11T12:20:40;5.90;99.90
26655;DHT22;14278;50.784;4.630;2024-01-11T12:23:06;5.90;99.90
26655;DHT22;14278;50.784;4.630;2024-01-11T12:25:32;5.60;99.90
26655;DHT22;14278;50.784;4.630;2024-01-11T12:27:58;5.80;99.90
26655;DHT22;14278;50.784;4.630;2024-01-11T12:30:26;5.90;99.90
26655;DHT22;14278;50.784;4.630;2024-01-11T12:32:55;6.50;99.90
26655;DHT22;14278;50.784;4.630;2024-01-11T12:35:21;6.90;99.90
26655;DHT22;14278;50.784;4.630;2024-01-11T12:38:04;6.20;99.90
26655;DHT22;14278;50.784;4.630;2024-01-11T12:40:36;6.50;99.90
26655;DHT22;14278;50.784;4.630;2024-01-11T12:43:05;6.00;99.90
26655;DHT22;14278;50.784;4.630;2024-01-11T12:45:33;6.60;99.90
26655;DHT22;14278;50.784;4.630;2024-01-11T12:48:00;6.40;99.90
26655;DHT22;14278;50.784;4.630;2024-01-11T12:50:30;6.70;99.90
26655;DHT22;14278;50.784;4.630;2024-01-11T12:53:12;6.60;99.90
26655;DHT22;14278;50.784;4.630;2024-01-11T12:55:44;6.20;99.90
26655;DHT22;14278;50.784;4.630;2024-01-11T12:58:09;5.90;99.90
26655;DHT22;14278;50.784;4.630;2024-01-11T13:00:36;5.30;99.90
26655;DHT22;14278;50.784;4.630;2024-01-11T13:03:03;5.30;99.90
26655;DHT22;14278;50.784;4.630;2024-01-11T13:05:29;5.30;99.90
26655;DHT22;14278;50.784;4.630;2024-01-11T13:08:09;5.20;99.90
26655;DHT22;14278;50.784;4.630;2024-01-11T13:10:36;4.90;99.90
26655;DHT22;14278;50.784;4.630;2024-01-11T13:13:03;4.70;99.90
26655;DHT22;14278;50.784;4.630;2024-01-11T13:15:30;4.20;99.90
26655;DHT22;14278;50.784;4.630;2024-01-11T13:17:57;4.60;99.90
26655;DHT22;14278;50.784;4.630;2024-01-11T13:20:23;3.90;99.90
26655;DHT22;14278;50.784;4.630;2024-01-11T13:22:53;3.80;99.90
26655;DHT22;14278;50.784;4.630;2024-01-11T13:25:19;3.90;99.90
26655;DHT22;14278;50.784;4.630;2024-01-11T13:27:44;3.50;99.90
26655;DHT22;14278;50.784;4.630;2024-01-11T13:30:10;3.10;99.90
26655;DHT22;14278;50.784;4.630;2024-01-11T13:32:36;3.10;99.90
26655;DHT22;14278;50.784;4.630;2024-01-11T13:35:01;2.90;99.90
26655;DHT22;14278;50.784;4.630;2024-01-11T13:37:27;2.80;99.90
26655;DHT22;14278;50.784;4.630;2024-01-11T13:39:53;3.10;99.90
26655;DHT22;14278;50.784;4.630;2024-01-11T13:42:18;3.30;99.90
26655;DHT22;14278;50.784;4.630;2024-01-11T13:44:44;2.70;99.90
26655;DHT22;14278;50.784;4.630;2024-01-11T13:47:10;2.90;99.90
26655;DHT22;14278;50.784;4.630;2024-01-11T13:49:36;2.80;99.90
26655;DHT22;14278;50.784;4.630;2024-01-11T13:52:01;3.00;99.90
26655;DHT22;14278;50.784;4.630;2024-01-11T13:54:27;2.70;99.90
26655;DHT22;14278;50.784;4.630;2024-01-11T13:56:53;2.50;99.90
26655;DHT22;14278;50.784;4.630;2024-01-11T13:59:18;2.50;99.90
26655;DHT22;14278;50.784;4.630;2024-01-11T14:01:44;2.40;99.90
26655;DHT22;14278;50.784;4.630;2024-01-11T14:04:10;2.50;99.90
26655;DHT22;14278;50.784;4.630;2024-01-11T14:06:35;2.70;99.90
26655;DHT22;14278;50.784;4.630;2024-01-11T14:09:01;2.60;99.90
26655;DHT22;14278;50.784;4.630;2024-01-11T14:11:30;2.80;99.90
26655;DHT22;14278;50.784;4.630;2024-01-11T14:13:55;2.40;99.90
26655;DHT22;14278;50.784;4.630;2024-01-11T14:16:21;2.20;99.90
26655;DHT22;14278;50.784;4.630;2024-01-11T14:18:47;2.30;99.90
26655;DHT22;14278;50.784;4.630;2024-01-11T14:21:12;2.40;99.90
26655;DHT22;14278;50.784;4.630;2024-01-11T14:23:38;2.70;99.90
26655;DHT22;14278;50.784;4.630;2024-01-11T14:26:04;2.60;99.90
26655;DHT22;14278;50.784;4.630;2024-01-11T14:28:29;2.60;99.90
26655;DHT22;14278;50.784;4.630;2024-01-11T14:30:55;2.70;99.90
26655;DHT22;14278;50.784;4.630;2024-01-11T14:33:21;2.50;99.90
26655;DHT22;14278;50.784;4.630;2024-01-11T14:35:46;2.10;99.90
26655;DHT22;14278;50.784;4.630;2024-01-11T14:38:12;2.00;99.90
26655;DHT22;14278;50.784;4.630;2024-01-11T14:40:38;2.20;99.90
26655;DHT22;14278;50.784;4.630;2024-01-11T14:43:03;2.20;99.90
26655;DHT22;14278;50.784;4.630;2024-01-11T14:45:30;2.20;99.90
26655;DHT22;14278;50.784;4.630;2024-01-11T14:47:55;2.50;99.90
26655;DHT22;14278;50.784;4.630;2024-01-11T14:50:21;2.40;99.90
26655;DHT22;14278;50.784;4.630;2024-01-11T14:52:47;2.40;99.90
26655;DHT22;14278;50.784;4.630;2024-01-11T14:55:13;2.50;99.90
26655;DHT22;14278;50.784;4.630;2024-01-11T14:57:41;2.30;99.90
26655;DHT22;14278;50.784;4.630;2024-01-11T15:00:07;2.10;99.90
26655;DHT22;14278;50.784;4.630;2024-01-11T15:02:33;1.90;99.90
26655;DHT22;14278;50.784;4.630;2024-01-11T15:04:59;2.00;99.90
26655;DHT22;14278;50.784;4.630;2024-01-11T15:07:25;2.10;99.90
26655;DHT22;14278;50.784;4.630;2024-01-11T15:09:51;1.80;99.90
26655;DHT22;14278;50.784;4.630;2024-01-11T15:12:17;1.90;99.90
26655;DHT22;14278;50.784;4.630;2024-01-11T15:14:45;1.90;99.90
26655;DHT22;14278;50.784;4.630;2024-01-11T15:17:11;1.70;99.90
26655;DHT22;14278;50.784;4.630;2024-01-11T15:19:36;1.60;99.90
26655;DHT22;14278;50.784;4.630;2024-01-11T15:22:02;1.60;99.90
26655;DHT22;14278;50.784;4.630;2024-01-11T15:24:28;1.40;99.90
26655;DHT22;14278;50.784;4.630;2024-01-11T15:26:54;1.50;99.90
26655;DHT22;14278;50.784;4.630;2024-01-11T15:29:19;1.30;99.90
26655;DHT22;14278;50.784;4.630;2024-01-11T15:31:45;1.50;99.90
26655;DHT22;14278;50.784;4.630;2024-01-11T15:34:11;1.30;99.90
26655;DHT22;14278;50.784;4.630;2024-01-11T15:36:38;1.40;99.90
26655;DHT22;14278;50.784;4.630;2024-01-11T15:39:05;1.10;99.90